createdAt,value
2023-01-13T00:02:38.526Z,12.23
2023-01-13T00:05:41.460Z,12.27
2023-01-13T00:08:44.493Z,11.45
2023-01-13T00:11:47.672Z,10.40
2023-01-13T00:14:50.174Z,9.05
2023-01-13T00:17:53.066Z,11.27
2023-01-13T00:21:07.646Z,8.85
2023-01-13T00:24:11.008Z,8.25
2023-01-13T00:27:13.627Z,9.68
2023-01-13T00:30:17.065Z,7.62
2023-01-13T00:33:19.839Z,9.75
2023-01-13T00:36:22.895Z,7.93
2023-01-13T00:39:25.445Z,10.10
2023-01-13T00:42:46.849Z,10.48
2023-01-13T00:45:52.199Z,9.77
2023-01-13T00:48:55.068Z,8.02
2023-01-13T00:51:58.272Z,12.13
2023-01-13T00:55:04.012Z,10.23
2023-01-13T00:58:06.775Z,9.85
2023-01-13T01:01:17.261Z,8.63
2023-01-13T01:04:19.901Z,10.73
2023-01-13T01:07:22.816Z,9.65
2023-01-13T01:10:25.412Z,8.25
2023-01-13T01:13:29.126Z,10.98
2023-01-13T01:16:33.545Z,9.38
2023-01-13T01:19:38.752Z,9.88
2023-01-13T01:22:41.309Z,8.93
2023-01-13T01:25:44.127Z,9.02
2023-01-13T01:28:47.615Z,9.45
2023-01-13T01:31:50.559Z,9.63
2023-01-13T01:34:53.077Z,9.43
2023-01-13T01:37:55.983Z,9.27
2023-01-13T01:41:00.472Z,10.35
2023-01-13T01:44:50.663Z,9.32
2023-01-13T01:48:01.036Z,9.73
2023-01-13T01:51:05.663Z,9.02
2023-01-13T01:54:11.363Z,8.32
2023-01-13T01:57:23.131Z,9.40
2023-01-13T02:00:28.414Z,7.10
2023-01-13T02:03:31.317Z,8.32
2023-01-13T02:06:33.833Z,9.10
2023-01-13T02:09:37.001Z,9.45
2023-01-13T02:12:42.241Z,7.10
2023-01-13T02:15:50.792Z,8.15
2023-01-13T02:19:18.314Z,9.30
2023-01-13T02:22:55.479Z,8.65
2023-01-13T02:26:47.097Z,8.43
2023-01-13T02:30:27.027Z,8.00
2023-01-13T02:33:35.974Z,8.35
2023-01-13T02:37:00.333Z,7.47
2023-01-13T02:40:09.940Z,7.78
2023-01-13T02:43:40.692Z,7.12
2023-01-13T02:47:16.218Z,8.07
2023-01-13T02:50:29.151Z,7.82
2023-01-13T02:53:37.085Z,7.47
2023-01-13T02:56:44.110Z,7.93
2023-01-13T02:59:47.905Z,7.12
2023-01-13T03:02:50.942Z,7.55
2023-01-13T03:06:09.237Z,7.55
2023-01-13T03:09:19.275Z,6.82
2023-01-13T03:12:52.400Z,7.00
2023-01-13T03:16:07.214Z,6.75
2023-01-13T03:19:35.296Z,6.78
2023-01-13T03:22:47.984Z,5.97
2023-01-13T03:26:04.437Z,7.18
2023-01-13T03:29:19.836Z,6.18
2023-01-13T03:32:34.806Z,5.95
2023-01-13T03:35:42.260Z,6.45
2023-01-13T03:38:51.621Z,7.30
2023-01-13T03:42:00.468Z,7.35
2023-01-13T03:45:02.944Z,6.32
2023-01-13T03:48:10.932Z,6.60
2023-01-13T03:51:18.393Z,7.00
2023-01-13T03:54:25.161Z,6.65
2023-01-13T03:57:32.448Z,6.93
2023-01-13T04:00:42.676Z,6.68
2023-01-13T04:03:54.647Z,6.40
2023-01-13T04:07:13.649Z,6.62
2023-01-13T04:10:28.901Z,6.97
2023-01-13T04:13:37.258Z,6.37
2023-01-13T04:16:41.752Z,7.15
2023-01-13T04:19:44.341Z,6.50
2023-01-13T04:22:47.382Z,7.28
2023-01-13T04:25:51.265Z,7.32
2023-01-13T04:28:55.504Z,7.55
2023-01-13T04:31:58.266Z,7.80
2023-01-13T04:35:01.178Z,7.10
2023-01-13T04:38:05.910Z,7.30
2023-01-13T04:41:11.652Z,6.32
2023-01-13T04:44:14.274Z,6.40
2023-01-13T04:47:17.094Z,6.55
2023-01-13T04:50:22.737Z,6.35
2023-01-13T04:53:25.664Z,6.78
2023-01-13T04:56:28.334Z,6.90
2023-01-13T04:59:32.803Z,7.75
2023-01-13T05:02:37.220Z,8.02
2023-01-13T05:05:40.047Z,7.43
2023-01-13T05:08:42.748Z,7.12
2023-01-13T05:12:04.180Z,7.20
2023-01-13T05:15:26.198Z,6.47
2023-01-13T05:18:31.206Z,6.65
2023-01-13T05:21:52.248Z,6.37
2023-01-13T05:25:13.658Z,7.20
2023-01-13T05:28:16.549Z,6.43
2023-01-13T05:31:19.560Z,7.35
2023-01-13T05:34:22.190Z,5.87
2023-01-13T05:37:25.939Z,6.85
2023-01-13T05:40:47.408Z,7.05
2023-01-13T05:43:50.248Z,7.47
2023-01-13T05:46:52.907Z,5.37
2023-01-13T05:49:55.958Z,6.60
2023-01-13T05:52:58.553Z,6.40
2023-01-13T05:56:04.877Z,7.60
2023-01-13T05:59:07.707Z,6.10
2023-01-13T06:02:10.588Z,6.85
2023-01-13T06:05:13.509Z,7.28
2023-01-13T06:08:16.246Z,6.10
2023-01-13T06:11:19.179Z,6.53
2023-01-13T06:14:21.759Z,6.70
2023-01-13T06:17:24.706Z,7.93
2023-01-13T06:20:28.362Z,6.55
2023-01-13T06:23:35.063Z,7.60
2023-01-13T06:26:40.308Z,5.40
2023-01-13T06:29:43.300Z,7.97
2023-01-13T06:32:52.197Z,6.37
2023-01-13T06:35:59.203Z,8.85
2023-01-13T06:39:04.164Z,6.82
2023-01-13T06:42:25.961Z,6.87
2023-01-13T06:45:30.408Z,6.65
2023-01-13T06:48:35.554Z,7.85
2023-01-13T06:51:38.305Z,7.70
2023-01-13T06:54:41.174Z,6.78
2023-01-13T06:57:52.813Z,6.07
2023-01-13T07:01:00.650Z,5.53
2023-01-13T07:04:03.803Z,6.72
2023-01-13T07:07:08.005Z,7.35
2023-01-13T07:10:13.646Z,6.65
2023-01-13T07:13:35.632Z,5.62
2023-01-13T07:16:38.165Z,6.55
2023-01-13T07:19:41.159Z,7.00
2023-01-13T07:22:44.114Z,6.18
2023-01-13T07:25:47.303Z,7.37
2023-01-13T07:28:49.968Z,7.53
2023-01-13T07:31:53.498Z,6.07
2023-01-13T07:34:56.513Z,6.28
2023-01-13T07:37:59.446Z,6.70
2023-01-13T07:41:21.369Z,7.18
2023-01-13T07:44:24.931Z,6.32
2023-01-13T07:47:27.456Z,7.30
2023-01-13T07:50:30.530Z,8.38
2023-01-13T07:53:34.432Z,5.95
2023-01-13T07:56:37.261Z,6.43
2023-01-13T07:59:39.955Z,7.15
2023-01-13T08:02:43.134Z,6.68
2023-01-13T08:05:51.159Z,7.35
2023-01-13T08:08:54.276Z,5.95
2023-01-13T08:12:16.617Z,6.25
2023-01-13T08:15:19.397Z,7.57
2023-01-13T08:18:23.000Z,6.60
2023-01-13T08:21:25.713Z,5.15
2023-01-13T08:24:28.677Z,5.85
2023-01-13T08:27:31.278Z,5.60
2023-01-13T08:30:34.390Z,6.35
2023-01-13T08:33:37.753Z,6.40
2023-01-13T08:36:41.197Z,4.68
2023-01-13T08:39:43.831Z,6.12
2023-01-13T08:42:48.611Z,6.12
2023-01-13T08:45:57.329Z,5.80
2023-01-13T08:49:00.315Z,5.90
2023-01-13T08:52:03.125Z,5.15
2023-01-13T08:55:06.856Z,5.30
2023-01-13T08:58:15.629Z,4.80
2023-01-13T09:01:23.104Z,5.15
2023-01-13T09:04:28.075Z,4.72
2023-01-13T09:07:31.507Z,4.75
2023-01-13T09:10:35.708Z,5.25
2023-01-13T09:13:39.705Z,5.32
2023-01-13T09:16:42.366Z,5.55
2023-01-13T09:19:45.279Z,6.55
2023-01-13T09:22:47.906Z,5.32
2023-01-13T09:25:52.811Z,5.30
2023-01-13T09:28:55.445Z,5.20
2023-01-13T09:31:58.406Z,6.03
2023-01-13T09:35:01.314Z,6.50
2023-01-13T09:38:04.272Z,5.72
2023-01-13T09:41:27.051Z,5.78
2023-01-13T09:44:52.795Z,5.47
2023-01-13T09:48:13.264Z,6.75
2023-01-13T09:51:43.531Z,5.97
2023-01-13T09:54:53.706Z,5.57
2023-01-13T09:57:56.769Z,7.05
2023-01-13T10:01:02.223Z,6.18
2023-01-13T10:04:11.513Z,6.30
2023-01-13T10:07:15.123Z,6.05
2023-01-13T10:10:50.021Z,6.65
2023-01-13T10:13:58.190Z,5.20
2023-01-13T10:20:25.515Z,6.15
2023-01-13T10:23:50.421Z,6.60
2023-01-13T10:27:02.213Z,6.12
2023-01-13T10:30:24.267Z,6.78
2023-01-13T10:33:28.457Z,6.75
2023-01-13T10:36:31.483Z,7.07
2023-01-13T10:39:45.944Z,6.82
2023-01-13T10:42:49.095Z,7.25
2023-01-13T10:45:58.679Z,6.82
2023-01-13T10:49:04.419Z,7.35
2023-01-13T10:52:26.546Z,7.15
2023-01-13T10:55:37.053Z,7.68
2023-01-13T10:58:39.634Z,7.53
2023-01-13T11:01:56.617Z,7.07
2023-01-13T11:05:08.474Z,7.05
2023-01-13T11:08:30.179Z,6.68
2023-01-13T11:11:43.580Z,6.57
2023-01-13T11:14:48.133Z,7.72
2023-01-13T11:18:05.035Z,7.35
2023-01-13T11:21:30.296Z,7.60
2023-01-13T11:25:10.662Z,7.32
2023-01-13T11:28:13.538Z,7.93
2023-01-13T11:31:32.373Z,8.93
2023-01-13T11:34:39.312Z,7.75
2023-01-13T11:37:47.665Z,7.53
2023-01-13T11:40:51.213Z,8.25
2023-01-13T11:44:27.683Z,7.15
2023-01-13T11:47:32.455Z,7.40
2023-01-13T11:51:10.452Z,7.40
2023-01-13T11:54:34.457Z,7.45
2023-01-13T11:58:01.938Z,9.02
2023-01-13T12:01:31.330Z,7.35
2023-01-13T12:04:53.287Z,9.85
2023-01-13T12:08:14.337Z,7.53
2023-01-13T12:11:29.717Z,7.22
2023-01-13T12:14:47.904Z,8.82
2023-01-13T12:18:12.439Z,9.32
2023-01-13T12:21:28.305Z,7.22
2023-01-13T12:25:05.427Z,8.43
2023-01-13T12:28:15.389Z,8.43
2023-01-13T12:31:19.715Z,7.82
2023-01-13T12:34:48.461Z,7.65
2023-01-13T12:38:02.874Z,8.35
2023-01-13T12:41:20.494Z,9.10
2023-01-13T12:44:23.414Z,9.38
2023-01-13T12:47:48.838Z,9.23
2023-01-13T12:51:00.704Z,7.70
2023-01-13T12:54:33.746Z,9.10
2023-01-13T12:57:37.290Z,9.02
2023-01-13T13:00:45.295Z,10.27
2023-01-13T13:04:08.009Z,9.20
2023-01-13T13:07:15.581Z,8.60
2023-01-13T13:10:31.751Z,9.68
2023-01-13T13:13:48.414Z,9.18
2023-01-13T13:16:53.004Z,10.05
2023-01-13T13:19:57.625Z,9.07
2023-01-13T13:23:00.600Z,8.25
2023-01-13T13:26:25.998Z,10.13
2023-01-13T13:29:55.141Z,9.55
2023-01-13T13:33:22.489Z,10.18
2023-01-13T13:36:44.302Z,8.73
2023-01-13T13:40:06.022Z,10.88
2023-01-13T13:43:32.539Z,8.55
2023-01-13T13:46:49.420Z,9.13
2023-01-13T13:49:56.741Z,8.38
2023-01-13T13:53:05.316Z,9.23
2023-01-13T13:56:21.756Z,9.30
2023-01-13T13:59:27.869Z,8.77
2023-01-13T14:02:37.052Z,8.23
2023-01-13T14:05:40.018Z,8.70
2023-01-13T14:08:50.157Z,7.70
2023-01-13T14:12:15.223Z,8.05
2023-01-13T14:15:29.453Z,8.30
2023-01-13T14:18:41.170Z,7.37
2023-01-13T14:21:48.143Z,8.75
2023-01-13T14:24:55.703Z,7.75
2023-01-13T14:28:03.856Z,8.75
2023-01-13T14:34:31.280Z,8.15
2023-01-13T14:37:39.281Z,7.85
2023-01-13T14:40:45.777Z,8.95
2023-01-13T14:43:50.984Z,8.40
2023-01-13T14:46:56.447Z,7.43
2023-01-13T14:50:13.081Z,7.78
2023-01-13T14:53:29.007Z,8.10
2023-01-13T14:56:49.887Z,7.95
2023-01-13T14:59:59.426Z,7.22
2023-01-13T15:03:08.007Z,7.65
2023-01-13T15:06:25.100Z,8.75
2023-01-13T15:09:33.936Z,7.43
2023-01-13T15:15:42.271Z,6.65
2023-01-13T15:18:45.315Z,7.87
2023-01-13T15:21:48.355Z,8.50
2023-01-13T15:24:51.160Z,7.50
2023-01-13T15:27:54.099Z,8.25
2023-01-13T15:31:00.715Z,8.13
2023-01-13T15:34:03.847Z,7.65
2023-01-13T15:37:09.229Z,8.73
2023-01-13T15:40:30.765Z,7.90
2023-01-13T15:43:52.235Z,9.27
2023-01-13T15:46:56.396Z,8.95
2023-01-13T15:49:59.231Z,8.27
2023-01-13T15:53:03.499Z,8.77
2023-01-13T15:56:12.992Z,9.95
2023-01-13T15:59:19.057Z,7.50
2023-01-13T16:02:22.719Z,8.15
2023-01-13T16:05:26.227Z,9.65
2023-01-13T16:08:30.987Z,9.02
2023-01-13T16:11:33.989Z,8.18
2023-01-13T16:14:36.938Z,8.45
2023-01-13T16:17:40.286Z,8.00
2023-01-13T16:20:46.687Z,7.95
2023-01-13T16:23:50.932Z,7.93
2023-01-13T16:26:53.465Z,8.65
2023-01-13T16:29:56.477Z,8.38
2023-01-13T16:32:59.715Z,7.05
2023-01-13T16:36:10.607Z,9.15
2023-01-13T16:39:21.510Z,8.00
2023-01-13T16:42:24.520Z,8.38
2023-01-13T16:45:27.724Z,8.57
2023-01-13T16:48:30.791Z,7.75
2023-01-13T16:51:33.668Z,8.52
2023-01-13T16:54:36.679Z,9.07
2023-01-13T16:57:39.387Z,7.82
2023-01-13T17:00:42.421Z,7.18
2023-01-13T17:03:49.096Z,7.90
2023-01-13T17:07:00.335Z,7.25
2023-01-13T17:10:03.756Z,8.60
2023-01-13T17:13:16.027Z,8.57
2023-01-13T17:16:22.067Z,8.20
2023-01-13T17:19:26.139Z,8.57
2023-01-13T17:22:30.773Z,8.35
2023-01-13T17:25:33.632Z,8.38
2023-01-13T17:28:36.192Z,7.05
2023-01-13T17:31:39.308Z,8.65
2023-01-13T17:34:42.086Z,8.98
2023-01-13T17:37:45.099Z,6.87
2023-01-13T17:40:48.115Z,7.22
2023-01-13T17:43:53.460Z,6.37
2023-01-13T17:46:56.779Z,7.03
2023-01-13T17:50:00.054Z,6.93
2023-01-13T17:53:02.628Z,7.82
2023-01-13T17:56:05.983Z,7.40
2023-01-13T17:59:11.321Z,7.70
2023-01-13T18:02:15.077Z,7.32
2023-01-13T18:05:18.349Z,9.18
2023-01-13T18:08:23.613Z,9.10
2023-01-13T18:11:27.363Z,8.38
2023-01-13T18:14:30.203Z,9.27
2023-01-13T18:17:33.167Z,8.60
2023-01-13T18:20:56.272Z,9.40
2023-01-13T18:24:17.620Z,8.30
2023-01-13T18:27:27.371Z,10.15
2023-01-13T18:30:32.028Z,10.43
2023-01-13T18:33:34.773Z,8.88
2023-01-13T18:36:38.760Z,10.63
2023-01-13T18:39:41.938Z,10.32
2023-01-13T18:42:59.204Z,9.70
2023-01-13T18:46:02.063Z,10.18
2023-01-13T18:49:05.078Z,9.68
2023-01-13T18:52:07.770Z,8.18
2023-01-13T18:55:10.985Z,10.00
2023-01-13T18:58:13.821Z,8.95
2023-01-13T19:01:17.879Z,8.20
2023-01-13T19:04:21.203Z,9.80
2023-01-13T19:07:28.351Z,10.18
2023-01-13T19:10:33.728Z,9.70
2023-01-13T19:13:36.922Z,10.55
2023-01-13T19:16:39.678Z,8.32
2023-01-13T19:19:54.761Z,8.55
2023-01-13T19:22:57.795Z,8.90
2023-01-13T19:26:03.013Z,9.07
2023-01-13T19:29:05.579Z,9.40
2023-01-13T19:32:08.965Z,10.63
2023-01-13T19:35:13.176Z,9.65
2023-01-13T19:38:16.417Z,9.70
2023-01-13T19:41:38.290Z,8.93
2023-01-13T19:44:59.912Z,9.00
2023-01-13T19:48:04.842Z,9.10
2023-01-13T19:51:08.106Z,8.35
2023-01-13T19:54:11.100Z,9.07
2023-01-13T19:57:15.035Z,9.48
2023-01-13T20:00:20.797Z,10.35
2023-01-13T20:03:30.988Z,10.68
2023-01-13T20:06:33.667Z,8.60
2023-01-13T20:09:36.726Z,8.77
2023-01-13T20:12:39.891Z,9.98
2023-01-13T20:15:43.964Z,9.93
2023-01-13T20:18:50.486Z,8.95
2023-01-13T20:21:53.894Z,10.05
2023-01-13T20:24:56.862Z,10.10
2023-01-13T20:28:01.867Z,9.18
2023-01-13T20:31:09.730Z,9.18
2023-01-13T20:34:14.567Z,10.07
2023-01-13T20:37:17.420Z,8.65
2023-01-13T20:40:20.892Z,8.15
2023-01-13T20:43:23.423Z,9.13
2023-01-13T20:46:27.303Z,9.38
2023-01-13T20:49:31.007Z,9.75
2023-01-13T20:52:34.193Z,10.30
2023-01-13T20:55:39.845Z,8.55
2023-01-13T20:58:44.052Z,10.77
2023-01-13T21:01:47.072Z,10.82
2023-01-13T21:04:50.193Z,10.73
2023-01-13T21:07:52.824Z,10.25
2023-01-13T21:11:04.576Z,9.45
2023-01-13T21:14:32.560Z,10.25
2023-01-13T21:21:11.672Z,8.15
2023-01-13T21:24:14.859Z,9.40
2023-01-13T21:27:17.556Z,10.15
2023-01-13T21:30:21.383Z,10.63
2023-01-13T21:33:24.356Z,9.52
2023-01-13T21:36:28.189Z,10.63
2023-01-13T21:39:30.835Z,10.90
2023-01-13T21:42:52.670Z,10.77
2023-01-13T21:46:13.899Z,11.82
2023-01-13T21:49:16.736Z,11.43
2023-01-13T21:52:19.437Z,9.80
2023-01-13T21:55:28.801Z,11.07
2023-01-13T21:58:31.524Z,11.43
2023-01-13T22:01:34.559Z,10.68
2023-01-13T22:04:37.701Z,10.27
2023-01-13T22:07:40.695Z,10.50
2023-01-13T22:10:58.417Z,10.82
2023-01-13T22:14:08.678Z,9.95
2023-01-13T22:17:14.570Z,11.90
2023-01-13T22:20:19.223Z,10.93
2023-01-13T22:23:22.280Z,10.10
2023-01-13T22:26:25.448Z,10.82
2023-01-13T22:29:28.312Z,10.95
2023-01-13T22:32:31.146Z,11.07
2023-01-13T22:35:34.062Z,10.80
2023-01-13T22:38:37.256Z,9.50
2023-01-13T22:41:40.192Z,11.73
2023-01-13T22:44:43.405Z,10.45
2023-01-13T22:47:46.355Z,11.85
2023-01-13T22:50:49.837Z,10.95
2023-01-13T22:53:53.571Z,11.18
2023-01-13T22:56:56.220Z,9.60
2023-01-13T22:59:59.235Z,11.77
2023-01-13T23:03:05.315Z,10.73
2023-01-13T23:06:08.630Z,10.90
2023-01-13T23:09:11.383Z,12.75
2023-01-13T23:12:14.262Z,10.52
2023-01-13T23:15:16.996Z,11.95
2023-01-13T23:18:19.931Z,11.35
2023-01-13T23:21:26.136Z,12.50
2023-01-13T23:24:29.316Z,11.27
2023-01-13T23:27:32.008Z,11.70
2023-01-13T23:30:35.009Z,11.20
2023-01-13T23:33:37.948Z,11.00
2023-01-13T23:36:43.275Z,10.48
2023-01-13T23:39:45.776Z,10.70
2023-01-13T23:42:49.830Z,11.23
2023-01-13T23:46:02.319Z,11.65
2023-01-13T23:49:05.486Z,11.55
2023-01-13T23:52:08.095Z,10.27
2023-01-13T23:55:11.027Z,11.32
2023-01-13T23:58:14.428Z,12.77
